Main page
METAR-TAF:

METAR-TAF

Airports :

Vanua Lava Airport

Vanua Lava, Vanuatu

latitude: 13-51-06S, longitude: 167-32-13E, elevation: 2 m

Current weather observation

The report was made 6 hours and 34 minutes ago, at 12:00 UTC
Wind 15 kt from the East/Southeast
Temperature 26°C
Humidity 94%
Pressure 1013 hPa
Visibility 10 km or more
Broken clouds at a height of 2000 ft

METAR: NVSC 211200Z 12015KT 9999 BKN020 26/25 Q1013

Time: 05:34 (18:34 UTC)

Forecast

The report was made 1 hour and 34 minutes ago, at 17:00 UTC
Forecast valid from 21 at 18 UTC to 22 at 18 UTC
Wind 12 kt from the East/Southeast
Visibility: 8000 m
Scattered clouds at a height of 2000 ft
Broken clouds at a height of 5000 ft
Scattered clouds at a height of 1200 ft
Broken clouds at a height of 1800 ft
rain showers,

TAF: NVSC 211700Z 2118/2218 12012KT 9999 SCT020 BKN050 INTER 2120/2124 8000 SHRA SCT012 BKN018

Weather observations and forecasts of more than 4000 airports (METAR and TAF reports).

The available stations are represented by yellow and red dots on the map.

Hover mouse over dot to see the name of the station.

Then click to see weather observations and forecasts.

To change the map : click on the green buttons with a black cross to zoom in, on the green button with a dash to zoom out, or on the green arrows for adjacent maps.


METAR-TAF: